Time;durP1;ratioP1;P1;durP2;ratioP2;P2;SDS_P1;SDS_P2;PMS_P1;PMS_P2;Temp;Humidity;BMP_temperature;BMP_pressure;BME280_temperature;BME280_humidity;BME280_pressure;Samples;Min_cycle;Max_cycle;Signal;HPM_P1;HPM_P2
2023/06/26 00:01:32;;;;;;;6.40;5.57;;;;;;;;;;5033523;28;20025;-76
2023/06/26 00:03:58;;;;;;;6.93;5.47;;;;;;;;;;5051933;28;20020;-76
2023/06/26 00:06:27;;;;;;;7.60;6.43;;;;;;;;;;5058265;28;20407;-75
2023/06/26 00:08:53;;;;;;;7.78;6.28;;;;;;;;;;5056723;28;20033;-76
2023/06/26 00:11:20;;;;;;;8.00;6.25;;;;;;;;;;5056305;28;20119;-75
2023/06/26 00:13:45;;;;;;;8.13;5.85;;;;;;;;;;5053562;28;20028;-75
2023/06/26 00:16:10;;;;;;;6.70;5.85;;;;;;;;;;5053499;28;20087;-75
2023/06/26 00:18:36;;;;;;;6.30;5.60;;;;;;;;;;5053936;28;20079;-76
2023/06/26 00:21:01;;;;;;;7.55;5.53;;;;;;;;;;5037350;28;20021;-75
2023/06/26 00:23:32;;;;;;;6.53;5.57;;;;;;;;;;5044367;28;20469;-75
2023/06/26 00:25:57;;;;;;;7.93;5.28;;;;;;;;;;5036748;28;20028;-74
2023/06/26 00:28:22;;;;;;;7.00;5.25;;;;;;;;;;5041451;28;20054;-75
2023/06/26 00:30:48;;;;;;;6.63;4.82;;;;;;;;;;5055527;28;20039;-75
2023/06/26 00:33:13;;;;;;;5.82;4.95;;;;;;;;;;5037280;28;20102;-75
2023/06/26 00:35:38;;;;;;;6.05;5.03;;;;;;;;;;5040451;28;20091;-75
2023/06/26 00:38:04;;;;;;;9.60;5.20;;;;;;;;;;5049949;28;20040;-75
2023/06/26 00:40:29;;;;;;;6.28;4.97;;;;;;;;;;5051521;28;20092;-75
2023/06/26 00:42:55;;;;;;;5.68;5.00;;;;;;;;;;5057876;28;20017;-75
2023/06/26 00:45:20;;;;;;;6.70;5.00;;;;;;;;;;5046690;28;20028;-75
2023/06/26 00:47:46;;;;;;;6.22;4.93;;;;;;;;;;5036158;28;20028;-75
2023/06/26 00:50:11;;;;;;;6.10;5.05;;;;;;;;;;5038311;28;20033;-75
2023/06/26 00:52:37;;;;;;;5.47;4.72;;;;;;;;;;5053823;28;20607;-75
2023/06/26 00:55:04;;;;;;;6.43;5.20;;;;;;;;;;5051258;28;20099;-75
2023/06/26 00:57:31;;;;;;;7.18;5.20;;;;;;;;;;5038992;28;21978;-75
2023/06/26 00:59:57;;;;;;;8.50;5.57;;;;;;;;;;5038527;28;20041;-75
2023/06/26 01:02:22;;;;;;;6.93;5.57;;;;;;;;;;5037003;28;20116;-75
2023/06/26 01:04:51;;;;;;;6.18;5.57;;;;;;;;;;5048349;28;20032;-75
2023/06/26 01:07:19;;;;;;;8.07;5.80;;;;;;;;;;5056047;28;20032;-75
2023/06/26 01:09:48;;;;;;;7.20;6.50;;;;;;;;;;5051980;28;20045;-75
2023/06/26 01:12:14;;;;;;;7.43;6.57;;;;;;;;;;5038443;28;20500;-75
2023/06/26 01:14:40;;;;;;;7.40;6.28;;;;;;;;;;5058523;28;20028;-75
2023/06/26 01:17:06;;;;;;;7.90;6.32;;;;;;;;;;5057319;28;20481;-75
2023/06/26 01:19:33;;;;;;;8.35;5.75;;;;;;;;;;5048103;28;20362;-75
2023/06/26 01:22:44;;;;;;;7.07;5.30;;;;;;;;;;5053564;28;20382;-75
2023/06/26 01:25:47;;;;;;;7.63;5.40;;;;;;;;;;5044575;28;20028;-76
2023/06/26 01:28:14;;;;;;;6.03;5.13;;;;;;;;;;5055067;28;20052;-75
2023/06/26 01:30:42;;;;;;;8.15;5.07;;;;;;;;;;5050203;28;20090;-75
2023/06/26 01:33:08;;;;;;;7.00;3.97;;;;;;;;;;5051920;28;20020;-75
2023/06/26 01:35:34;;;;;;;5.55;3.78;;;;;;;;;;5042991;28;20143;-75
2023/06/26 01:38:26;;;;;;;5.68;3.75;;;;;;;;;;5035846;28;20095;-76
2023/06/26 01:40:52;;;;;;;6.32;3.50;;;;;;;;;;5028481;28;20025;-75
2023/06/26 01:43:49;;;;;;;5.35;3.47;;;;;;;;;;5038164;28;20051;-75
2023/06/26 01:46:33;;;;;;;5.13;3.20;;;;;;;;;;5054568;28;20024;-75
2023/06/26 01:49:09;;;;;;;4.97;2.80;;;;;;;;;;5036243;28;20361;-75
2023/06/26 01:52:07;;;;;;;4.32;2.80;;;;;;;;;;5038043;28;20055;-76
2023/06/26 01:54:39;;;;;;;5.70;2.92;;;;;;;;;;5050865;28;20489;-75
2023/06/26 01:57:05;;;;;;;5.57;2.85;;;;;;;;;;5063452;28;20027;-76
2023/06/26 01:59:32;;;;;;;5.82;2.67;;;;;;;;;;5062826;28;20028;-74
2023/06/26 02:01:57;;;;;;;5.93;2.75;;;;;;;;;;5036339;28;20025;-74
2023/06/26 02:04:23;;;;;;;6.22;3.10;;;;;;;;;;5038645;28;20119;-75
2023/06/26 02:06:48;;;;;;;5.60;2.70;;;;;;;;;;5050945;28;20033;-74
2023/06/26 02:09:13;;;;;;;6.38;3.10;;;;;;;;;;5058965;28;20024;-75
2023/06/26 02:11:39;;;;;;;5.45;3.03;;;;;;;;;;5044245;28;20843;-75
2023/06/26 02:14:04;;;;;;;6.22;3.00;;;;;;;;;;5055968;28;20028;-75
2023/06/26 02:16:29;;;;;;;6.15;3.08;;;;;;;;;;5059060;28;20031;-74
2023/06/26 02:18:57;;;;;;;7.95;3.00;;;;;;;;;;5058114;28;20029;-75
2023/06/26 02:21:23;;;;;;;6.75;3.00;;;;;;;;;;5041512;28;20091;-75
2023/06/26 02:23:48;;;;;;;6.22;2.80;;;;;;;;;;5035465;28;20037;-75
2023/06/26 02:26:13;;;;;;;7.22;3.00;;;;;;;;;;5056349;28;20067;-75
2023/06/26 02:28:39;;;;;;;5.88;2.58;;;;;;;;;;5054352;28;20020;-75
2023/06/26 02:31:04;;;;;;;6.13;2.80;;;;;;;;;;5056986;28;20031;-75
2023/06/26 02:33:30;;;;;;;10.23;3.17;;;;;;;;;;5055627;28;20021;-75
2023/06/26 02:35:55;;;;;;;5.65;2.90;;;;;;;;;;5061841;28;20036;-75
2023/06/26 02:38:21;;;;;;;5.22;2.80;;;;;;;;;;5055185;28;20039;-75
2023/06/26 02:40:46;;;;;;;7.68;2.97;;;;;;;;;;5048483;28;20071;-74
2023/06/26 02:43:11;;;;;;;6.43;3.10;;;;;;;;;;5054755;28;20025;-75
2023/06/26 02:45:37;;;;;;;6.47;3.00;;;;;;;;;;5049248;28;20037;-75
2023/06/26 02:48:02;;;;;;;8.63;3.20;;;;;;;;;;5050524;28;20024;-75
2023/06/26 02:50:28;;;;;;;5.95;3.00;;;;;;;;;;5056913;28;20033;-75
2023/06/26 02:52:53;;;;;;;7.25;3.15;;;;;;;;;;5056904;28;20027;-75
2023/06/26 02:55:20;;;;;;;6.70;2.85;;;;;;;;;;5035886;28;20137;-75
2023/06/26 02:57:46;;;;;;;8.25;3.13;;;;;;;;;;5056506;28;20025;-75
2023/06/26 03:00:12;;;;;;;6.93;2.70;;;;;;;;;;5038175;28;20381;-75
2023/06/26 03:02:38;;;;;;;6.82;3.28;;;;;;;;;;5047102;28;20032;-74
2023/06/26 03:05:04;;;;;;;6.32;2.92;;;;;;;;;;5039283;28;20029;-75
2023/06/26 03:07:30;;;;;;;5.25;2.92;;;;;;;;;;5058755;28;20032;-75
2023/06/26 03:09:55;;;;;;;6.63;3.25;;;;;;;;;;5034858;28;20029;-75
2023/06/26 03:12:20;;;;;;;6.88;3.13;;;;;;;;;;5036465;28;20076;-75
2023/06/26 03:14:46;;;;;;;6.55;3.05;;;;;;;;;;5061815;28;20056;-75
2023/06/26 03:17:11;;;;;;;9.18;3.45;;;;;;;;;;5040612;28;20048;-75
2023/06/26 03:19:36;;;;;;;9.57;3.13;;;;;;;;;;5052455;28;20091;-76
2023/06/26 03:22:03;;;;;;;7.80;3.20;;;;;;;;;;5036136;28;20103;-75
2023/06/26 03:24:29;;;;;;;8.65;3.30;;;;;;;;;;5033091;28;20033;-76
2023/06/26 03:26:54;;;;;;;11.02;3.53;;;;;;;;;;5056624;28;20036;-74
2023/06/26 03:29:20;;;;;;;8.35;3.38;;;;;;;;;;5053459;28;20021;-75
2023/06/26 03:31:45;;;;;;;8.60;3.33;;;;;;;;;;5054683;28;20029;-75
2023/06/26 03:34:10;;;;;;;10.85;3.70;;;;;;;;;;5057582;28;20664;-75
2023/06/26 03:36:36;;;;;;;7.22;3.38;;;;;;;;;;5059958;28;20029;-75
2023/06/26 03:39:01;;;;;;;8.65;4.18;;;;;;;;;;5055107;28;20020;-75
2023/06/26 03:41:26;;;;;;;7.75;3.35;;;;;;;;;;5043006;28;20032;-75
2023/06/26 03:43:52;;;;;;;8.63;3.50;;;;;;;;;;5057380;28;20024;-75
2023/06/26 03:46:17;;;;;;;9.52;3.97;;;;;;;;;;5056248;28;20021;-75
2023/06/26 03:48:43;;;;;;;8.02;3.30;;;;;;;;;;5054763;28;20017;-74
2023/06/26 03:51:08;;;;;;;7.97;3.13;;;;;;;;;;5042527;28;20407;-75
2023/06/26 03:53:34;;;;;;;7.78;3.55;;;;;;;;;;5052614;28;20037;-76
2023/06/26 03:55:59;;;;;;;11.43;3.55;;;;;;;;;;5040913;28;20032;-75
2023/06/26 03:58:25;;;;;;;9.82;3.55;;;;;;;;;;5057912;28;20021;-75
2023/06/26 04:00:51;;;;;;;10.05;3.40;;;;;;;;;;5058657;28;20016;-75
2023/06/26 04:03:17;;;;;;;10.35;4.68;;;;;;;;;;5034361;28;20045;-75
2023/06/26 04:05:42;;;;;;;8.52;3.60;;;;;;;;;;5056091;28;20040;-75
2023/06/26 04:08:08;;;;;;;9.75;3.60;;;;;;;;;;5040172;28;20428;-75
2023/06/26 04:10:34;;;;;;;8.15;3.15;;;;;;;;;;5060605;28;20032;-75
2023/06/26 04:12:59;;;;;;;10.77;3.55;;;;;;;;;;5061104;28;20028;-74
2023/06/26 04:15:24;;;;;;;8.55;3.20;;;;;;;;;;5039177;28;20043;-75
2023/06/26 04:17:50;;;;;;;9.32;3.40;;;;;;;;;;5060671;28;20048;-76
2023/06/26 04:20:15;;;;;;;8.90;3.40;;;;;;;;;;5060756;28;20388;-75
2023/06/26 04:22:41;;;;;;;10.30;3.28;;;;;;;;;;5039502;28;20029;-75
2023/06/26 04:25:06;;;;;;;8.32;3.35;;;;;;;;;;5038897;28;20040;-75
2023/06/26 04:27:32;;;;;;;9.18;3.38;;;;;;;;;;5046415;28;20040;-76
2023/06/26 04:29:57;;;;;;;9.30;3.80;;;;;;;;;;5035799;28;20041;-75
2023/06/26 04:32:23;;;;;;;12.10;3.80;;;;;;;;;;5045104;28;20020;-75
2023/06/26 04:34:48;;;;;;;8.23;3.22;;;;;;;;;;5056507;28;20035;-75
2023/06/26 04:37:17;;;;;;;9.40;2.90;;;;;;;;;;5053106;28;20478;-75
2023/06/26 04:39:42;;;;;;;9.27;3.55;;;;;;;;;;5036600;28;20029;-75
2023/06/26 04:42:09;;;;;;;10.60;3.35;;;;;;;;;;5055974;28;20082;-74
2023/06/26 04:44:34;;;;;;;9.50;3.35;;;;;;;;;;5054097;28;20028;-75
2023/06/26 04:46:59;;;;;;;9.60;3.63;;;;;;;;;;5055611;28;20020;-74
2023/06/26 04:49:25;;;;;;;10.52;3.15;;;;;;;;;;5061991;28;20021;-75
2023/06/26 04:51:51;;;;;;;8.25;3.10;;;;;;;;;;5050293;28;20052;-75
2023/06/26 04:54:16;;;;;;;7.55;2.97;;;;;;;;;;5060030;28;20032;-75
2023/06/26 04:56:43;;;;;;;9.77;3.40;;;;;;;;;;5036706;28;20471;-76
2023/06/26 04:59:12;;;;;;;8.82;2.88;;;;;;;;;;5039990;28;20093;-75
2023/06/26 05:01:39;;;;;;;8.32;2.90;;;;;;;;;;5035978;28;20401;-74
2023/06/26 05:04:05;;;;;;;7.70;2.50;;;;;;;;;;5057210;28;20028;-75
2023/06/26 05:06:30;;;;;;;8.73;3.38;;;;;;;;;;5048908;28;20032;-74
2023/06/26 05:08:56;;;;;;;7.50;3.03;;;;;;;;;;5056782;28;20033;-75
2023/06/26 05:11:21;;;;;;;9.27;3.45;;;;;;;;;;5046217;28;20020;-75
2023/06/26 05:13:47;;;;;;;10.95;3.70;;;;;;;;;;5055584;28;20505;-75
2023/06/26 05:16:12;;;;;;;7.22;3.30;;;;;;;;;;5053365;28;20048;-75
2023/06/26 05:18:38;;;;;;;11.48;3.20;;;;;;;;;;5038523;28;20471;-74
2023/06/26 05:21:03;;;;;;;9.07;3.15;;;;;;;;;;5040483;28;20374;-75
2023/06/26 05:23:33;;;;;;;8.38;2.88;;;;;;;;;;5046970;28;20032;-76
2023/06/26 05:26:00;;;;;;;8.02;3.15;;;;;;;;;;5054816;28;20043;-75
2023/06/26 05:28:27;;;;;;;10.32;3.20;;;;;;;;;;5055489;28;20074;-75
2023/06/26 05:30:53;;;;;;;8.90;2.83;;;;;;;;;;5036997;28;20056;-75
2023/06/26 05:33:20;;;;;;;8.57;2.85;;;;;;;;;;5055354;28;20052;-75
2023/06/26 05:35:46;;;;;;;7.05;2.95;;;;;;;;;;5051489;28;20103;-75
2023/06/26 05:38:13;;;;;;;10.02;3.05;;;;;;;;;;5053425;28;20028;-75
2023/06/26 05:40:40;;;;;;;11.18;3.33;;;;;;;;;;5047054;28;20120;-75
2023/06/26 05:43:06;;;;;;;10.40;2.55;;;;;;;;;;5046447;28;20385;-75
2023/06/26 05:45:32;;;;;;;8.60;2.97;;;;;;;;;;5039601;28;20027;-75
2023/06/26 05:47:57;;;;;;;6.38;2.67;;;;;;;;;;5051551;28;20376;-75
2023/06/26 05:50:23;;;;;;;9.68;3.13;;;;;;;;;;5048377;28;20537;-75
2023/06/26 05:52:49;;;;;;;9.90;3.17;;;;;;;;;;5065880;28;20119;-75
2023/06/26 05:55:14;;;;;;;7.60;2.90;;;;;;;;;;5068887;28;20013;-75
2023/06/26 05:57:40;;;;;;;8.30;2.78;;;;;;;;;;5058888;28;20083;-74
2023/06/26 06:00:10;;;;;;;6.60;2.67;;;;;;;;;;5063757;28;20040;-76
2023/06/26 06:02:36;;;;;;;7.47;2.65;;;;;;;;;;5054053;28;20055;-74
2023/06/26 06:05:02;;;;;;;9.43;2.97;;;;;;;;;;5047088;28;20033;-75
2023/06/26 06:07:27;;;;;;;5.28;2.58;;;;;;;;;;5059536;28;20036;-75
2023/06/26 06:09:52;;;;;;;6.00;2.40;;;;;;;;;;5049208;28;20028;-76
2023/06/26 06:12:18;;;;;;;9.13;2.53;;;;;;;;;;5048123;28;20040;-76
2023/06/26 06:14:43;;;;;;;7.03;2.83;;;;;;;;;;5047047;28;20029;-75
2023/06/26 06:17:08;;;;;;;4.75;2.13;;;;;;;;;;5041614;28;21606;-75
2023/06/26 06:19:34;;;;;;;9.80;2.80;;;;;;;;;;5043362;28;20021;-75
2023/06/26 06:21:59;;;;;;;4.75;2.22;;;;;;;;;;5030129;28;20033;-75
2023/06/26 06:24:25;;;;;;;4.82;1.90;;;;;;;;;;5057619;28;20130;-75
2023/06/26 06:26:50;;;;;;;6.75;2.10;;;;;;;;;;5029436;28;20120;-74
2023/06/26 06:29:15;;;;;;;6.45;2.63;;;;;;;;;;5030414;28;20021;-74
2023/06/26 06:31:41;;;;;;;4.63;2.20;;;;;;;;;;5037478;28;20057;-76
2023/06/26 06:34:06;;;;;;;5.40;2.15;;;;;;;;;;5058820;28;20021;-74
2023/06/26 06:36:31;;;;;;;4.97;2.33;;;;;;;;;;5055107;28;20025;-74
2023/06/26 06:38:57;;;;;;;3.72;2.00;;;;;;;;;;5033543;28;20029;-74
2023/06/26 06:41:22;;;;;;;4.68;2.08;;;;;;;;;;5042474;28;20068;-74
2023/06/26 06:43:47;;;;;;;9.52;2.20;;;;;;;;;;5053088;28;20025;-75
2023/06/26 06:46:13;;;;;;;5.78;2.30;;;;;;;;;;5055468;28;20033;-76
2023/06/26 06:48:38;;;;;;;4.20;2.38;;;;;;;;;;5051784;28;20489;-74
2023/06/26 06:51:04;;;;;;;6.50;2.28;;;;;;;;;;5037727;28;20036;-75
2023/06/26 06:53:30;;;;;;;4.90;2.35;;;;;;;;;;5044149;28;20021;-75
2023/06/26 06:55:55;;;;;;;4.70;2.40;;;;;;;;;;5047244;28;20025;-75
2023/06/26 06:58:22;;;;;;;9.65;2.47;;;;;;;;;;5055031;28;20029;-74
2023/06/26 07:00:48;;;;;;;5.63;2.53;;;;;;;;;;5061248;28;20012;-75
2023/06/26 07:03:13;;;;;;;4.95;2.38;;;;;;;;;;5052231;28;20417;-74
2023/06/26 07:05:41;;;;;;;6.85;2.50;;;;;;;;;;5033533;28;20071;-73
2023/06/26 07:08:07;;;;;;;6.70;2.40;;;;;;;;;;5042064;28;20534;-75
2023/06/26 07:10:32;;;;;;;6.40;2.58;;;;;;;;;;5055594;28;20033;-76
2023/06/26 07:12:57;;;;;;;5.85;2.28;;;;;;;;;;5031386;28;20397;-75
2023/06/26 07:15:23;;;;;;;5.20;2.50;;;;;;;;;;5057087;28;20052;-75
2023/06/26 07:17:48;;;;;;;7.13;2.42;;;;;;;;;;5035381;28;20041;-75
2023/06/26 07:20:16;;;;;;;4.38;2.33;;;;;;;;;;5040614;28;20016;-74
2023/06/26 07:22:43;;;;;;;6.30;2.72;;;;;;;;;;5061636;28;20048;-74
2023/06/26 07:25:09;;;;;;;9.20;3.80;;;;;;;;;;5029608;28;20040;-74
2023/06/26 07:27:35;;;;;;;7.85;2.63;;;;;;;;;;5056295;28;20032;-74
2023/06/26 07:30:01;;;;;;;5.47;2.40;;;;;;;;;;5035053;28;20079;-77
2023/06/26 07:32:26;;;;;;;7.45;2.63;;;;;;;;;;5048100;28;20028;-77
2023/06/26 07:34:52;;;;;;;7.30;2.75;;;;;;;;;;5050029;28;20115;-75
2023/06/26 07:37:17;;;;;;;3.72;2.53;;;;;;;;;;5032512;28;20029;-75
2023/06/26 07:39:43;;;;;;;6.57;2.97;;;;;;;;;;5042701;28;20056;-74
2023/06/26 07:42:08;;;;;;;4.53;2.53;;;;;;;;;;5021855;28;20397;-74
2023/06/26 07:44:33;;;;;;;6.93;2.67;;;;;;;;;;5064112;28;20389;-78
2023/06/26 07:46:59;;;;;;;3.92;2.53;;;;;;;;;;5045162;28;20032;-75
2023/06/26 07:49:24;;;;;;;5.40;2.63;;;;;;;;;;5033989;28;20021;-74
2023/06/26 07:51:50;;;;;;;5.85;2.53;;;;;;;;;;5056912;28;20053;-75
2023/06/26 07:54:15;;;;;;;4.68;2.40;;;;;;;;;;5035456;28;20032;-74
2023/06/26 07:56:57;;;;;;;4.43;2.58;;;;;;;;;;5052241;28;20025;-75
2023/06/26 07:59:23;;;;;;;5.30;2.28;;;;;;;;;;5050026;28;20048;-74
2023/06/26 08:01:51;;;;;;;5.35;2.20;;;;;;;;;;5033682;28;20481;-74
2023/06/26 08:04:21;;;;;;;4.43;1.80;;;;;;;;;;5048821;28;20061;-74
2023/06/26 08:06:51;;;;;;;5.97;2.38;;;;;;;;;;5050312;28;20096;-74
2023/06/26 08:09:17;;;;;;;5.20;2.03;;;;;;;;;;5036435;28;20069;-74
2023/06/26 08:11:43;;;;;;;3.63;1.73;;;;;;;;;;5036014;28;20033;-77
2023/06/26 08:14:08;;;;;;;3.97;1.70;;;;;;;;;;5039655;28;20028;-74
2023/06/26 08:16:34;;;;;;;6.05;1.73;;;;;;;;;;5032593;28;20033;-74
2023/06/26 08:19:00;;;;;;;4.78;2.03;;;;;;;;;;5036630;28;20477;-75
2023/06/26 08:21:25;;;;;;;4.72;1.88;;;;;;;;;;5031724;28;20021;-75
2023/06/26 08:23:50;;;;;;;4.80;1.80;;;;;;;;;;5063359;28;20035;-78
2023/06/26 08:26:16;;;;;;;5.95;1.60;;;;;;;;;;5059601;28;20107;-75
2023/06/26 08:28:42;;;;;;;4.90;1.60;;;;;;;;;;5045422;28;20041;-79
2023/06/26 08:31:07;;;;;;;5.38;1.40;;;;;;;;;;5053567;28;20111;-79
2023/06/26 08:33:32;;;;;;;4.70;1.30;;;;;;;;;;5032528;28;20032;-79
2023/06/26 08:35:58;;;;;;;3.95;1.40;;;;;;;;;;5034530;28;20029;-78
2023/06/26 08:38:23;;;;;;;4.65;1.17;;;;;;;;;;5025800;28;20048;-79
2023/06/26 08:40:49;;;;;;;4.88;1.20;;;;;;;;;;5024191;28;20115;-79
2023/06/26 08:43:14;;;;;;;5.20;1.30;;;;;;;;;;5021145;28;20099;-78
2023/06/26 08:45:39;;;;;;;3.20;1.45;;;;;;;;;;5031967;28;20496;-79
2023/06/26 08:48:07;;;;;;;3.50;1.20;;;;;;;;;;5044619;28;20085;-79
2023/06/26 08:50:34;;;;;;;5.13;1.52;;;;;;;;;;5031742;28;20021;-78
2023/06/26 08:53:00;;;;;;;3.17;1.27;;;;;;;;;;5031061;28;20499;-79
2023/06/26 08:55:28;;;;;;;4.28;1.60;;;;;;;;;;5037620;28;20032;-78
2023/06/26 08:57:54;;;;;;;3.22;1.30;;;;;;;;;;5039511;28;20029;-79
2023/06/26 09:00:20;;;;;;;5.05;1.48;;;;;;;;;;5030162;28;20025;-79
2023/06/26 09:02:45;;;;;;;5.75;1.58;;;;;;;;;;5048262;28;20079;-79
2023/06/26 09:05:11;;;;;;;2.70;1.30;;;;;;;;;;5033395;28;20035;-80
2023/06/26 09:07:36;;;;;;;4.78;1.40;;;;;;;;;;5050876;28;20106;-79
2023/06/26 09:10:02;;;;;;;5.15;1.20;;;;;;;;;;5047135;28;20091;-79
2023/06/26 09:12:28;;;;;;;7.15;1.70;;;;;;;;;;5035759;28;20025;-79
2023/06/26 09:14:55;;;;;;;5.25;1.50;;;;;;;;;;5036306;28;20112;-79
2023/06/26 09:17:26;;;;;;;5.13;1.40;;;;;;;;;;5032776;28;20029;-79
2023/06/26 09:19:51;;;;;;;3.78;1.30;;;;;;;;;;5032740;28;20473;-79
2023/06/26 09:22:17;;;;;;;5.00;1.42;;;;;;;;;;5049941;28;20118;-79
2023/06/26 09:24:43;;;;;;;7.03;1.38;;;;;;;;;;5029157;28;20031;-79
2023/06/26 09:27:09;;;;;;;3.15;1.20;;;;;;;;;;5033401;28;20052;-79
2023/06/26 09:29:35;;;;;;;4.35;0.93;;;;;;;;;;5034100;28;20558;-79
2023/06/26 09:32:00;;;;;;;3.53;1.10;;;;;;;;;;5034855;28;20028;-79
2023/06/26 09:34:33;;;;;;;2.53;1.00;;;;;;;;;;5050290;28;20025;-79
2023/06/26 09:37:02;;;;;;;4.25;1.13;;;;;;;;;;5049690;28;20442;-79
2023/06/26 09:39:30;;;;;;;3.72;1.00;;;;;;;;;;5034005;28;20027;-79
2023/06/26 09:41:57;;;;;;;5.15;0.90;;;;;;;;;;5034066;28;20037;-79
2023/06/26 09:44:22;;;;;;;3.20;0.90;;;;;;;;;;5032421;28;20489;-78
2023/06/26 09:46:48;;;;;;;2.00;0.77;;;;;;;;;;5035121;28;20090;-79
2023/06/26 09:49:13;;;;;;;2.25;0.93;;;;;;;;;;5034313;28;20067;-79
2023/06/26 09:51:41;;;;;;;3.45;0.80;;;;;;;;;;5034617;28;20043;-79
2023/06/26 09:54:07;;;;;;;5.50;1.33;;;;;;;;;;5053927;28;20021;-79
2023/06/26 09:56:33;;;;;;;4.57;1.13;;;;;;;;;;5029318;28;20091;-78
2023/06/26 09:59:02;;;;;;;3.72;0.90;;;;;;;;;;5053641;28;20024;-79
2023/06/26 10:01:27;;;;;;;3.78;0.82;;;;;;;;;;5031304;28;20069;-79
2023/06/26 10:03:57;;;;;;;6.10;1.33;;;;;;;;;;5048918;28;20056;-79
2023/06/26 10:06:51;;;;;;;3.17;1.00;;;;;;;;;;5046732;28;20021;-79
2023/06/26 10:09:22;;;;;;;5.40;1.35;;;;;;;;;;5032834;28;20492;-78
2023/06/26 10:11:55;;;;;;;2.47;0.98;;;;;;;;;;5047085;28;20519;-79
2023/06/26 10:14:29;;;;;;;6.20;1.38;;;;;;;;;;5051343;28;20025;-79
2023/06/26 10:17:01;;;;;;;3.78;0.70;;;;;;;;;;5047759;28;20021;-78
2023/06/26 10:19:27;;;;;;;3.75;0.85;;;;;;;;;;5032163;28;20084;-78
2023/06/26 10:21:54;;;;;;;4.18;0.90;;;;;;;;;;5046173;28;20083;-79
2023/06/26 10:24:22;;;;;;;3.80;1.38;;;;;;;;;;5044754;28;20035;-79
2023/06/26 10:26:50;;;;;;;3.13;0.80;;;;;;;;;;5033102;28;20067;-80
2023/06/26 10:29:17;;;;;;;2.40;0.90;;;;;;;;;;5026768;28;20036;-80
2023/06/26 10:31:54;;;;;;;3.45;0.80;;;;;;;;;;5048257;28;20119;-79
2023/06/26 10:34:20;;;;;;;1.92;0.90;;;;;;;;;;5034796;28;20024;-79
2023/06/26 10:36:47;;;;;;;3.70;0.90;;;;;;;;;;5040752;28;20024;-79
2023/06/26 10:39:12;;;;;;;7.30;1.00;;;;;;;;;;5043677;28;20024;-79
2023/06/26 10:41:44;;;;;;;3.30;0.73;;;;;;;;;;5050601;28;20036;-80
2023/06/26 10:44:16;;;;;;;1.98;0.80;;;;;;;;;;5028297;28;20408;-80
2023/06/26 10:46:54;;;;;;;3.65;1.00;;;;;;;;;;5028374;28;20055;-80
2023/06/26 10:49:24;;;;;;;1.52;0.70;;;;;;;;;;5037548;28;20037;-79
2023/06/26 10:51:51;;;;;;;1.98;0.70;;;;;;;;;;5047397;28;20033;-79
2023/06/26 10:54:18;;;;;;;2.97;0.73;;;;;;;;;;5011981;28;20458;-80
2023/06/26 10:56:51;;;;;;;3.70;1.00;;;;;;;;;;5041889;28;20039;-79
2023/06/26 10:59:18;;;;;;;4.40;1.33;;;;;;;;;;5043862;28;20100;-79
2023/06/26 11:01:46;;;;;;;2.20;0.70;;;;;;;;;;5052979;28;20552;-79
2023/06/26 11:04:16;;;;;;;1.58;0.70;;;;;;;;;;5054546;28;20039;-80
2023/06/26 11:06:46;;;;;;;9.10;2.45;;;;;;;;;;5028653;28;20029;-79
2023/06/26 11:09:15;;;;;;;3.40;1.77;;;;;;;;;;5036711;28;20724;-79
2023/06/26 11:11:53;;;;;;;4.10;0.80;;;;;;;;;;5032917;28;20025;-79
2023/06/26 11:14:19;;;;;;;3.03;0.98;;;;;;;;;;5042472;28;20032;-79
2023/06/26 11:16:45;;;;;;;2.40;0.90;;;;;;;;;;5032034;28;20033;-79
2023/06/26 11:19:11;;;;;;;5.22;0.93;;;;;;;;;;5051832;28;20036;-79
2023/06/26 11:21:38;;;;;;;1.95;0.80;;;;;;;;;;5052006;28;20024;-79
2023/06/26 11:24:06;;;;;;;3.35;0.77;;;;;;;;;;5051695;28;20063;-79
2023/06/26 11:26:38;;;;;;;2.03;0.80;;;;;;;;;;5032102;28;20527;-79
2023/06/26 11:29:04;;;;;;;;;;;;;;;;;;5054513;28;20040;-79
2023/06/26 11:31:31;;;;;;;2.28;0.88;;;;;;;;;;5047758;28;19921;-78
2023/06/26 11:34:02;;;;;;;4.00;1.00;;;;;;;;;;5049716;28;20523;-78
2023/06/26 11:36:28;;;;;;;2.63;1.05;;;;;;;;;;5049355;28;20028;-79
2023/06/26 11:38:59;;;;;;;3.75;0.80;;;;;;;;;;5051358;28;20032;-79
2023/06/26 11:41:28;;;;;;;3.20;1.02;;;;;;;;;;5051148;28;20036;-78
2023/06/26 11:43:54;;;;;;;3.35;0.90;;;;;;;;;;5037582;28;20397;-78
2023/06/26 11:46:21;;;;;;;3.00;0.95;;;;;;;;;;5032818;28;20036;-78
2023/06/26 11:48:48;;;;;;;5.28;1.10;;;;;;;;;;5063157;28;20021;-79
2023/06/26 11:51:17;;;;;;;3.15;1.10;;;;;;;;;;5052604;28;20029;-77
2023/06/26 11:53:43;;;;;;;3.83;0.93;;;;;;;;;;5054683;28;20029;-78
2023/06/26 11:56:13;;;;;;;3.28;0.90;;;;;;;;;;5035204;28;20027;-78
2023/06/26 11:59:00;;;;;;;2.63;1.00;;;;;;;;;;5041142;28;20397;-79
2023/06/26 12:01:27;;;;;;;2.42;1.20;;;;;;;;;;5053974;28;20016;-77
2023/06/26 12:03:58;;;;;;;2.95;0.95;;;;;;;;;;5041890;28;20099;-78
2023/06/26 12:06:24;;;;;;;4.93;1.20;;;;;;;;;;5054757;28;20104;-77
2023/06/26 12:08:49;;;;;;;3.70;1.10;;;;;;;;;;5039391;28;20132;-78
2023/06/26 12:11:15;;;;;;;4.32;1.13;;;;;;;;;;5035484;28;20553;-78
2023/06/26 12:13:41;;;;;;;3.28;1.55;;;;;;;;;;5039389;28;20441;-77
2023/06/26 12:16:06;;;;;;;3.25;1.08;;;;;;;;;;5041044;28;20021;-78
2023/06/26 12:18:35;;;;;;;4.60;1.20;;;;;;;;;;5056057;28;20075;-77
2023/06/26 12:21:01;;;;;;;2.28;1.10;;;;;;;;;;5040890;28;20493;-77
2023/06/26 12:23:33;;;;;;;4.03;1.73;;;;;;;;;;5052676;28;20032;-78
2023/06/26 12:25:58;;;;;;;3.80;1.92;;;;;;;;;;5034181;28;20049;-77
2023/06/26 12:28:24;;;;;;;5.60;1.45;;;;;;;;;;5053218;28;20052;-77
2023/06/26 12:31:16;;;;;;;5.47;1.50;;;;;;;;;;5062081;28;20060;-77
2023/06/26 12:33:44;;;;;;;3.78;1.60;;;;;;;;;;5042850;28;20073;-78
2023/06/26 12:36:11;;;;;;;3.10;1.45;;;;;;;;;;5033618;28;20384;-77
2023/06/26 12:38:37;;;;;;;4.72;1.38;;;;;;;;;;5034790;28;20519;-77
2023/06/26 12:41:02;;;;;;;4.32;1.70;;;;;;;;;;5059486;28;20048;-77
2023/06/26 12:43:28;;;;;;;2.28;1.10;;;;;;;;;;5053775;28;20100;-77
2023/06/26 12:45:56;;;;;;;3.63;1.35;;;;;;;;;;5034133;28;20071;-76
2023/06/26 12:48:36;;;;;;;2.25;0.77;;;;;;;;;;5034049;28;20116;-77
2023/06/26 12:51:09;;;;;;;2.13;0.80;;;;;;;;;;5042602;28;20060;-76
2023/06/26 12:53:34;;;;;;;4.30;0.80;;;;;;;;;;5035107;28;20134;-77
2023/06/26 12:55:59;;;;;;;3.72;0.80;;;;;;;;;;5053449;28;20469;-76
2023/06/26 12:58:25;;;;;;;2.50;0.80;;;;;;;;;;5028895;28;20024;-77
2023/06/26 13:00:50;;;;;;;2.10;0.70;;;;;;;;;;5063285;28;20025;-77
2023/06/26 13:03:15;;;;;;;2.50;1.17;;;;;;;;;;5041526;28;20055;-77
2023/06/26 13:05:41;;;;;;;2.20;0.80;;;;;;;;;;5051398;28;20484;-77
2023/06/26 13:08:08;;;;;;;3.75;0.80;;;;;;;;;;5030014;28;20025;-77
2023/06/26 13:10:33;;;;;;;2.55;0.80;;;;;;;;;;5043698;28;20021;-76
2023/06/26 13:12:58;;;;;;;1.75;0.55;;;;;;;;;;5049334;28;20374;-76
2023/06/26 13:15:24;;;;;;;6.43;0.90;;;;;;;;;;5034230;28;20031;-77
2023/06/26 13:17:49;;;;;;;3.22;0.80;;;;;;;;;;5038295;28;20033;-77
2023/06/26 13:20:14;;;;;;;3.00;0.80;;;;;;;;;;5051492;28;20025;-77
2023/06/26 13:22:40;;;;;;;1.48;1.00;;;;;;;;;;5045261;28;20040;-76
2023/06/26 13:25:05;;;;;;;2.35;0.70;;;;;;;;;;5033871;28;20536;-77
2023/06/26 13:27:31;;;;;;;3.22;0.77;;;;;;;;;;5035708;28;20048;-77
2023/06/26 13:29:56;;;;;;;2.47;1.02;;;;;;;;;;5034010;28;20032;-77
2023/06/26 13:32:21;;;;;;;3.63;1.00;;;;;;;;;;5034776;28;20036;-76
2023/06/26 13:34:48;;;;;;;3.30;1.27;;;;;;;;;;5037172;28;20024;-77
2023/06/26 13:37:13;;;;;;;2.28;0.80;;;;;;;;;;5055287;28;20025;-77
2023/06/26 13:39:39;;;;;;;3.83;1.00;;;;;;;;;;5029789;28;20025;-77
2023/06/26 13:42:04;;;;;;;3.65;0.85;;;;;;;;;;5030692;28;20151;-77
2023/06/26 13:44:30;;;;;;;1.92;0.80;;;;;;;;;;5030198;28;20151;-77
2023/06/26 13:46:55;;;;;;;4.22;1.20;;;;;;;;;;5038737;28;20039;-76
2023/06/26 13:49:20;;;;;;;3.88;0.70;;;;;;;;;;5045846;28;20048;-76
2023/06/26 13:51:48;;;;;;;2.63;0.90;;;;;;;;;;5029339;28;20032;-77
2023/06/26 13:54:13;;;;;;;5.25;1.15;;;;;;;;;;5028231;28;20508;-76
2023/06/26 13:56:38;;;;;;;3.03;1.00;;;;;;;;;;5044385;28;20037;-77
2023/06/26 13:59:04;;;;;;;1.88;1.00;;;;;;;;;;5034845;28;20054;-77
2023/06/26 14:01:30;;;;;;;2.72;0.90;;;;;;;;;;5047031;28;20027;-77
2023/06/26 14:03:55;;;;;;;2.15;0.82;;;;;;;;;;5042155;28;20094;-77
2023/06/26 14:06:20;;;;;;;2.17;0.90;;;;;;;;;;5048558;28;20362;-76
2023/06/26 14:08:46;;;;;;;1.00;0.60;;;;;;;;;;5032094;28;20048;-77
2023/06/26 14:11:11;;;;;;;3.45;0.90;;;;;;;;;;5046558;28;20017;-77
2023/06/26 14:13:36;;;;;;;2.08;0.98;;;;;;;;;;5032047;28;20087;-77
2023/06/26 14:16:02;;;;;;;2.40;0.77;;;;;;;;;;5026195;28;20119;-77
2023/06/26 14:18:27;;;;;;;2.03;0.80;;;;;;;;;;5025468;28;20025;-76
2023/06/26 14:20:53;;;;;;;2.15;0.80;;;;;;;;;;5044579;28;20753;-77
2023/06/26 14:23:19;;;;;;;2.40;0.80;;;;;;;;;;5028097;28;20770;-76
2023/06/26 14:25:44;;;;;;;2.00;0.90;;;;;;;;;;5030933;28;20078;-77
2023/06/26 14:28:09;;;;;;;4.15;1.10;;;;;;;;;;5047460;28;20111;-77
2023/06/26 14:30:35;;;;;;;3.78;1.30;;;;;;;;;;5031100;28;20061;-75
2023/06/26 14:33:00;;;;;;;3.30;0.95;;;;;;;;;;5032755;28;20083;-77
2023/06/26 14:35:26;;;;;;;1.92;0.75;;;;;;;;;;5051565;28;20029;-77
2023/06/26 14:37:51;;;;;;;2.45;0.73;;;;;;;;;;5028496;28;20048;-77
2023/06/26 14:40:16;;;;;;;2.88;1.00;;;;;;;;;;5030072;28;20481;-77
2023/06/26 14:42:43;;;;;;;3.20;0.80;;;;;;;;;;5004553;28;20061;-77